createdAt,value
2018-12-11T00:00:53.856Z,23.19
2018-12-11T00:01:53.848Z,23.32
2018-12-11T00:02:53.826Z,23.26
2018-12-11T00:03:53.834Z,23.28
2018-12-11T00:04:53.831Z,23.34
2018-12-11T00:05:53.794Z,23.26
2018-12-11T00:06:53.805Z,23.28
2018-12-11T00:07:53.783Z,23.22
2018-12-11T00:08:53.796Z,23.21
2018-12-11T00:09:53.753Z,23.22
2018-12-11T00:10:53.741Z,23.12
2018-12-11T00:11:53.727Z,23.14
2018-12-11T00:12:53.716Z,23.28
2018-12-11T00:13:53.729Z,23.25
2018-12-11T00:14:53.742Z,23.21
2018-12-11T00:15:53.687Z,23.16
2018-12-11T00:16:53.673Z,23.21
2018-12-11T00:17:53.676Z,23.16
2018-12-11T00:18:53.649Z,23.19
2018-12-11T00:19:53.654Z,23.22
2018-12-11T00:20:53.627Z,23.15
2018-12-11T00:21:53.614Z,23.18
2018-12-11T00:22:53.606Z,23.14
2018-12-11T00:23:53.599Z,23.14
2018-12-11T00:24:53.600Z,23.21
2018-12-11T00:25:53.600Z,23.19
2018-12-11T00:26:53.562Z,23.14
2018-12-11T00:27:53.568Z,23.15
2018-12-11T00:28:53.537Z,23.14
2018-12-11T00:29:53.546Z,23.19
2018-12-11T00:30:53.541Z,23.25
2018-12-11T00:31:53.505Z,23.10
2018-12-11T00:32:53.497Z,23.15
2018-12-11T00:33:53.508Z,23.21
2018-12-11T00:34:53.492Z,23.19
2018-12-11T00:35:53.461Z,23.19
2018-12-11T00:36:53.462Z,23.15
2018-12-11T00:37:53.442Z,23.22
2018-12-11T00:38:53.426Z,23.19
2018-12-11T00:39:53.447Z,23.10
2018-12-11T00:40:53.417Z,23.12
2018-12-11T00:41:53.395Z,23.10
2018-12-11T00:42:53.394Z,23.18
2018-12-11T00:43:53.372Z,23.15
2018-12-11T00:44:53.372Z,23.16
2018-12-11T00:45:53.350Z,23.12
2018-12-11T00:46:53.345Z,23.09
2018-12-11T00:47:53.333Z,23.14
2018-12-11T00:48:53.317Z,23.09
2018-12-11T00:49:53.345Z,23.04
2018-12-11T00:50:53.325Z,23.07
2018-12-11T00:51:53.309Z,23.09
2018-12-11T00:52:53.270Z,23.07
2018-12-11T00:53:53.266Z,23.16
2018-12-11T00:54:53.266Z,23.16
2018-12-11T00:55:53.236Z,23.10
2018-12-11T00:56:53.228Z,23.06
2018-12-11T00:57:53.224Z,23.16
2018-12-11T00:58:53.206Z,23.09
2018-12-11T00:59:53.213Z,23.09
2018-12-11T01:00:53.184Z,23.10
2018-12-11T01:01:53.171Z,23.07
2018-12-11T01:02:53.196Z,23.07
2018-12-11T01:03:53.170Z,23.07
2018-12-11T01:04:53.157Z,23.04
2018-12-11T01:05:53.127Z,23.07
2018-12-11T01:06:53.124Z,23.16
2018-12-11T01:07:53.136Z,23.18
2018-12-11T01:08:53.091Z,23.16
2018-12-11T01:09:53.099Z,23.18
2018-12-11T01:10:53.104Z,23.22
2018-12-11T01:11:53.073Z,23.14
2018-12-11T01:12:53.062Z,23.22
2018-12-11T01:13:53.062Z,23.19
2018-12-11T01:14:53.035Z,23.14
2018-12-11T01:15:53.022Z,23.14
2018-12-11T01:16:53.019Z,23.22
2018-12-11T01:17:53.005Z,23.19
2018-12-11T01:18:52.979Z,23.22
2018-12-11T01:19:52.970Z,23.16
2018-12-11T01:20:52.973Z,23.21
2018-12-11T01:21:52.960Z,23.21
2018-12-11T01:22:52.939Z,23.15
2018-12-11T01:23:52.926Z,23.19
2018-12-11T01:24:52.915Z,23.14
2018-12-11T01:25:52.925Z,23.16
2018-12-11T01:26:52.910Z,23.15
2018-12-11T01:27:52.885Z,23.22
2018-12-11T01:28:52.875Z,23.29
2018-12-11T01:29:52.860Z,23.19
2018-12-11T01:30:52.866Z,23.16
2018-12-11T01:31:52.835Z,23.15
2018-12-11T01:32:52.830Z,23.14
2018-12-11T01:33:52.826Z,23.32
2018-12-11T01:34:52.800Z,23.25
2018-12-11T01:35:52.805Z,23.18
2018-12-11T01:36:52.780Z,23.15
2018-12-11T01:37:52.769Z,23.15
2018-12-11T01:38:52.770Z,23.28
2018-12-11T01:39:52.745Z,23.16
2018-12-11T01:40:52.750Z,23.29
2018-12-11T01:41:52.730Z,23.18
2018-12-11T01:42:52.713Z,23.25
2018-12-11T01:43:52.703Z,23.19
2018-12-11T01:44:52.691Z,23.32
2018-12-11T01:45:52.696Z,23.21
2018-12-11T01:46:52.668Z,23.21
2018-12-11T01:47:52.662Z,23.24
2018-12-11T01:48:52.647Z,23.24
2018-12-11T01:49:52.655Z,23.28
2018-12-11T01:50:52.635Z,23.22
2018-12-11T01:51:52.611Z,23.19
2018-12-11T01:52:52.599Z,23.26
2018-12-11T01:53:52.590Z,23.28
2018-12-11T01:54:52.577Z,23.16
2018-12-11T01:55:52.584Z,23.21
2018-12-11T01:56:52.571Z,23.16
2018-12-11T01:57:52.552Z,23.19
2018-12-11T01:58:52.552Z,23.19
2018-12-11T01:59:52.558Z,23.19
2018-12-11T02:00:52.534Z,23.22
2018-12-11T02:01:52.503Z,23.22
2018-12-11T02:02:52.492Z,23.14
2018-12-11T02:03:52.482Z,23.19
2018-12-11T02:04:52.471Z,23.12
2018-12-11T02:05:52.490Z,23.19
2018-12-11T02:06:52.450Z,23.18
2018-12-11T02:07:52.445Z,23.18
2018-12-11T02:08:52.422Z,23.15
2018-12-11T02:09:52.422Z,23.24
2018-12-11T02:10:52.414Z,23.21
2018-12-11T02:11:52.414Z,23.12
2018-12-11T02:12:52.402Z,23.15
2018-12-11T02:13:52.380Z,23.16
2018-12-11T02:14:52.386Z,23.15
2018-12-11T02:15:52.393Z,23.10
2018-12-11T02:16:52.344Z,23.09
2018-12-11T02:17:52.330Z,23.16
2018-12-11T02:18:52.338Z,23.18
2018-12-11T02:19:52.313Z,23.16
2018-12-11T02:20:52.287Z,23.18
2018-12-11T02:21:52.293Z,23.19
2018-12-11T02:22:52.293Z,23.22
2018-12-11T02:23:52.269Z,23.15
2018-12-11T02:24:52.247Z,23.14
2018-12-11T02:25:52.235Z,23.16
2018-12-11T02:26:52.231Z,23.19
2018-12-11T02:27:52.216Z,23.18
2018-12-11T02:28:52.201Z,23.19
2018-12-11T02:29:52.223Z,23.12
2018-12-11T02:30:52.191Z,23.10
2018-12-11T02:31:52.199Z,23.15
2018-12-11T02:32:52.174Z,23.14
2018-12-11T02:33:52.166Z,23.15
2018-12-11T02:34:52.137Z,23.14
2018-12-11T02:35:52.141Z,23.10
2018-12-11T02:36:52.129Z,23.09
2018-12-11T02:37:52.102Z,23.16
2018-12-11T02:38:52.087Z,23.07
2018-12-11T02:39:52.101Z,23.07
2018-12-11T02:40:52.080Z,23.07
2018-12-11T02:41:52.073Z,23.07
2018-12-11T02:42:52.072Z,23.14
2018-12-11T02:43:52.130Z,23.10
2018-12-11T02:44:52.022Z,23.14
2018-12-11T02:45:52.035Z,23.10
2018-12-11T02:46:52.023Z,23.09
2018-12-11T02:47:51.993Z,23.16
2018-12-11T02:48:51.979Z,23.18
2018-12-11T02:49:51.967Z,23.10
2018-12-11T02:50:51.969Z,23.16
2018-12-11T02:51:51.961Z,23.09
2018-12-11T02:52:51.934Z,23.06
2018-12-11T02:53:51.935Z,23.14
2018-12-11T02:54:51.914Z,23.10
2018-12-11T02:55:51.898Z,23.09
2018-12-11T02:56:51.909Z,23.14
2018-12-11T02:57:51.887Z,23.12
2018-12-11T02:58:51.896Z,23.14
2018-12-11T02:59:51.855Z,23.12
2018-12-11T03:00:51.847Z,23.10
2018-12-11T03:01:51.845Z,23.15
2018-12-11T03:02:51.873Z,23.14
2018-12-11T03:03:52.525Z,23.09
2018-12-11T03:04:51.805Z,23.09
2018-12-11T03:05:51.792Z,23.07
2018-12-11T03:06:51.838Z,23.14
2018-12-11T03:07:51.773Z,23.09
2018-12-11T03:08:51.800Z,23.16
2018-12-11T03:09:51.745Z,23.21
2018-12-11T03:10:51.739Z,23.12
2018-12-11T03:11:51.745Z,23.09
2018-12-11T03:12:51.718Z,23.12
2018-12-11T03:13:51.698Z,23.09
2018-12-11T03:14:51.691Z,23.12
2018-12-11T03:15:51.683Z,23.09
2018-12-11T03:16:51.674Z,23.14
2018-12-11T03:17:51.670Z,23.15
2018-12-11T03:18:51.643Z,23.06
2018-12-11T03:19:51.638Z,23.07
2018-12-11T03:20:51.623Z,23.10
2018-12-11T03:21:51.628Z,23.07
2018-12-11T03:22:51.612Z,23.18
2018-12-11T03:23:51.587Z,23.14
2018-12-11T03:24:51.577Z,23.10
2018-12-11T03:25:51.581Z,23.15
2018-12-11T03:26:51.567Z,23.10
2018-12-11T03:27:51.597Z,23.15
2018-12-11T03:28:51.550Z,23.12
2018-12-11T03:29:51.525Z,23.16
2018-12-11T03:30:51.534Z,23.14
2018-12-11T03:31:51.501Z,23.18
2018-12-11T03:32:51.509Z,23.18
2018-12-11T03:33:51.487Z,23.22
2018-12-11T03:34:51.466Z,23.22
2018-12-11T03:35:51.466Z,23.15
2018-12-11T03:36:51.453Z,23.15
2018-12-11T03:37:51.466Z,23.15
2018-12-11T03:38:51.424Z,23.14
2018-12-11T03:39:51.411Z,23.19
2018-12-11T03:40:51.403Z,23.25
2018-12-11T03:41:51.385Z,23.19
2018-12-11T03:42:51.394Z,23.15
2018-12-11T03:43:51.369Z,23.19
2018-12-11T03:44:51.380Z,23.16
2018-12-11T03:45:51.341Z,23.18
2018-12-11T03:46:51.376Z,23.12
2018-12-11T03:47:51.333Z,23.19
2018-12-11T03:48:51.314Z,23.16
2018-12-11T03:49:51.360Z,23.16
2018-12-11T03:50:51.300Z,23.14
2018-12-11T03:51:51.273Z,23.18
2018-12-11T03:52:51.276Z,23.22
2018-12-11T03:53:51.259Z,23.15
2018-12-11T03:54:51.267Z,23.16
2018-12-11T03:55:51.235Z,23.16
2018-12-11T03:56:51.250Z,23.16
2018-12-11T03:57:51.223Z,23.18
2018-12-11T03:58:51.196Z,23.10
2018-12-11T03:59:51.187Z,23.24
2018-12-11T04:00:51.183Z,23.18
2018-12-11T04:01:51.168Z,23.14
2018-12-11T04:02:51.172Z,23.18
2018-12-11T04:03:51.142Z,23.10
2018-12-11T04:04:51.139Z,23.14
2018-12-11T04:05:51.118Z,23.12
2018-12-11T04:06:51.107Z,23.21
2018-12-11T04:07:51.127Z,23.18
2018-12-11T04:08:51.094Z,23.21
2018-12-11T04:09:51.074Z,23.14
2018-12-11T04:10:51.071Z,23.16
2018-12-11T04:11:51.053Z,23.16
2018-12-11T04:12:51.074Z,23.18
2018-12-11T04:13:51.046Z,23.14
2018-12-11T04:14:51.026Z,23.16
2018-12-11T04:15:51.013Z,23.07
2018-12-11T04:16:50.999Z,23.12
2018-12-11T04:17:51.183Z,23.18
2018-12-11T04:18:50.983Z,23.10
2018-12-11T04:19:50.963Z,23.12
2018-12-11T04:20:50.953Z,23.14
2018-12-11T04:21:50.943Z,23.15
2018-12-11T04:22:50.928Z,23.09
2018-12-11T04:23:50.942Z,23.12
2018-12-11T04:24:50.921Z,23.07
2018-12-11T04:25:50.893Z,23.15
2018-12-11T04:26:50.884Z,23.14
2018-12-11T04:27:50.873Z,23.09
2018-12-11T04:28:50.877Z,23.09
2018-12-11T04:29:50.857Z,23.12
2018-12-11T04:30:50.869Z,23.12
2018-12-11T04:31:50.831Z,23.07
2018-12-11T04:32:50.819Z,23.12
2018-12-11T04:33:50.824Z,23.09
2018-12-11T04:34:50.794Z,23.14
2018-12-11T04:35:50.789Z,23.10
2018-12-11T04:36:50.782Z,23.12
2018-12-11T04:37:50.760Z,23.09
2018-12-11T04:38:50.761Z,23.16
2018-12-11T04:39:50.743Z,23.10
2018-12-11T04:40:50.736Z,23.15
2018-12-11T04:41:50.715Z,23.04
2018-12-11T04:42:50.707Z,23.16
2018-12-11T04:43:50.783Z,23.09
2018-12-11T04:44:50.683Z,23.15
2018-12-11T04:45:50.670Z,23.14
2018-12-11T04:46:50.665Z,23.06
2018-12-11T04:47:50.648Z,23.09
2018-12-11T04:48:50.657Z,23.12
2018-12-11T04:49:50.639Z,23.16
2018-12-11T04:50:50.616Z,23.14
2018-12-11T04:51:50.607Z,23.06
2018-12-11T04:52:50.593Z,23.10
2018-12-11T04:53:50.601Z,23.09
2018-12-11T04:54:50.573Z,23.15
2018-12-11T04:55:50.565Z,23.04
2018-12-11T04:56:50.573Z,23.14
2018-12-11T04:57:50.543Z,23.12
2018-12-11T04:58:50.538Z,23.14
2018-12-11T04:59:50.517Z,23.09
2018-12-11T05:00:50.504Z,23.14
2018-12-11T05:01:50.511Z,23.09
2018-12-11T05:02:50.482Z,23.04
2018-12-11T05:03:50.505Z,23.06
2018-12-11T05:04:50.463Z,23.07
2018-12-11T05:05:50.449Z,23.06
2018-12-11T05:06:50.445Z,23.07
2018-12-11T05:07:50.427Z,23.09
2018-12-11T05:08:50.439Z,23.07
2018-12-11T05:09:50.403Z,23.03
2018-12-11T05:10:50.405Z,23.07
2018-12-11T05:11:50.381Z,23.06
2018-12-11T05:12:50.370Z,23.06
2018-12-11T05:13:51.222Z,23.06
2018-12-11T05:14:50.359Z,23.06
2018-12-11T05:15:50.339Z,23.06
2018-12-11T05:16:50.353Z,23.06
2018-12-11T05:17:50.328Z,23.03
2018-12-11T05:18:50.307Z,23.04
2018-12-11T05:19:50.313Z,23.07
2018-12-11T05:20:50.291Z,22.99
2018-12-11T05:21:50.287Z,23.04
2018-12-11T05:22:50.272Z,23.00
2018-12-11T05:23:50.254Z,22.91
2018-12-11T05:24:50.250Z,23.00
2018-12-11T05:25:50.227Z,23.09
2018-12-11T05:26:50.214Z,22.97
2018-12-11T05:27:50.214Z,22.97
2018-12-11T05:28:50.192Z,22.97
2018-12-11T05:29:50.255Z,22.96
2018-12-11T05:30:50.180Z,23.04
2018-12-11T05:31:50.164Z,23.03
2018-12-11T05:32:50.156Z,23.00
2018-12-11T05:33:50.154Z,22.99
2018-12-11T05:34:50.138Z,23.00
2018-12-11T05:35:50.128Z,23.00
2018-12-11T05:36:50.172Z,23.01
2018-12-11T05:37:50.091Z,23.01
2018-12-11T05:38:50.100Z,22.96
2018-12-11T05:39:50.156Z,22.92
2018-12-11T05:40:50.059Z,23.00
2018-12-11T05:41:50.108Z,23.04
2018-12-11T05:42:50.037Z,22.99
2018-12-11T05:43:50.026Z,23.01
2018-12-11T05:44:50.026Z,23.01
2018-12-11T05:45:50.006Z,22.89
2018-12-11T05:46:49.994Z,23.01
2018-12-11T05:47:49.981Z,23.01
2018-12-11T05:48:49.968Z,22.92
2018-12-11T05:49:49.970Z,22.99
2018-12-11T05:50:49.949Z,22.99
2018-12-11T05:51:49.937Z,22.97
2018-12-11T05:52:49.929Z,22.99
2018-12-11T05:53:49.912Z,22.92
2018-12-11T05:54:49.960Z,23.01
2018-12-11T05:55:50.530Z,23.06
2018-12-11T05:56:50.076Z,23.01
2018-12-11T05:57:49.870Z,23.03
2018-12-11T05:58:49.923Z,23.03
2018-12-11T05:59:49.857Z,23.07
2018-12-11T06:00:49.836Z,23.10
2018-12-11T06:01:49.828Z,23.07
2018-12-11T06:02:49.838Z,23.04
2018-12-11T06:03:49.832Z,23.09
2018-12-11T06:04:49.838Z,23.04
2018-12-11T06:05:49.778Z,23.06
2018-12-11T06:06:49.781Z,23.04
2018-12-11T06:07:49.778Z,23.12
2018-12-11T06:08:49.753Z,23.12
2018-12-11T06:09:49.740Z,23.10
2018-12-11T06:10:49.734Z,23.09
2018-12-11T06:11:49.734Z,23.04
2018-12-11T06:12:49.701Z,23.14
2018-12-11T06:13:49.713Z,23.09
2018-12-11T06:14:49.683Z,23.09
2018-12-11T06:15:49.691Z,23.07
2018-12-11T06:16:49.663Z,23.14
2018-12-11T06:17:49.679Z,23.16
2018-12-11T06:18:49.642Z,23.15
2018-12-11T06:19:49.623Z,23.12
2018-12-11T06:20:49.638Z,23.12
2018-12-11T06:21:49.599Z,23.09
2018-12-11T06:22:49.592Z,23.09
2018-12-11T06:23:49.579Z,23.06
2018-12-11T06:24:49.577Z,23.10
2018-12-11T06:25:49.591Z,23.07
2018-12-11T06:26:49.543Z,23.10
2018-12-11T06:27:49.538Z,23.10
2018-12-11T06:28:49.543Z,23.09
2018-12-11T06:29:49.522Z,23.15
2018-12-11T06:30:49.512Z,23.09
2018-12-11T06:31:49.523Z,23.16
2018-12-11T06:32:49.479Z,23.09
2018-12-11T06:33:49.466Z,23.14
2018-12-11T06:34:49.454Z,23.09
2018-12-11T06:35:49.480Z,23.10
2018-12-11T06:36:49.447Z,23.14
2018-12-11T06:37:49.436Z,23.14
2018-12-11T06:38:49.419Z,23.09
2018-12-11T06:39:49.401Z,23.12
2018-12-11T06:40:49.399Z,23.15
2018-12-11T06:41:49.389Z,23.12
2018-12-11T06:42:49.385Z,23.07
2018-12-11T06:43:49.356Z,23.16
2018-12-11T06:44:49.349Z,23.18
2018-12-11T06:45:49.416Z,23.09
2018-12-11T06:46:49.328Z,23.18
2018-12-11T06:47:49.316Z,23.09
2018-12-11T06:48:49.322Z,23.07
2018-12-11T06:49:49.298Z,23.10
2018-12-11T06:50:49.310Z,23.16
2018-12-11T06:51:49.264Z,23.18
2018-12-11T06:52:49.253Z,23.18
2018-12-11T06:53:49.259Z,23.15
2018-12-11T06:54:49.235Z,23.16
2018-12-11T06:55:49.276Z,23.16
2018-12-11T06:56:49.217Z,23.19
2018-12-11T06:57:49.202Z,23.16
2018-12-11T06:58:49.191Z,23.14
2018-12-11T06:59:49.184Z,23.15
2018-12-11T07:00:49.163Z,23.16
2018-12-11T07:01:49.188Z,23.10
2018-12-11T07:02:49.143Z,23.07
2018-12-11T07:03:49.133Z,23.09
2018-12-11T07:04:49.141Z,23.07
2018-12-11T07:05:49.111Z,23.18
2018-12-11T07:06:49.108Z,23.18
2018-12-11T07:07:49.083Z,23.16
2018-12-11T07:08:49.076Z,23.18
2018-12-11T07:09:49.067Z,23.12
2018-12-11T07:10:49.069Z,23.18
2018-12-11T07:11:49.079Z,23.16
2018-12-11T07:12:49.030Z,23.15
2018-12-11T07:13:49.021Z,23.06
2018-12-11T07:14:49.014Z,23.16
2018-12-11T07:15:49.006Z,23.06
2018-12-11T07:16:48.999Z,23.22
2018-12-11T07:17:48.973Z,23.18
2018-12-11T07:18:48.974Z,23.14
2018-12-11T07:19:48.953Z,23.19
2018-12-11T07:20:48.939Z,23.10
2018-12-11T07:21:48.963Z,23.19
2018-12-11T07:22:48.933Z,23.15
2018-12-11T07:23:48.929Z,23.18
2018-12-11T07:24:48.897Z,23.21
2018-12-11T07:25:48.893Z,23.18
2018-12-11T07:26:48.921Z,23.15
2018-12-11T07:27:48.869Z,23.14
2018-12-11T07:28:48.857Z,23.21
2018-12-11T07:29:48.838Z,23.14
2018-12-11T07:30:48.830Z,23.14
2018-12-11T07:31:48.823Z,23.22
2018-12-11T07:32:48.822Z,23.21
2018-12-11T07:33:51.024Z,23.12
2018-12-11T07:34:48.913Z,23.16
2018-12-11T07:35:48.773Z,23.19
2018-12-11T07:36:48.771Z,23.19
2018-12-11T07:37:48.779Z,23.16
2018-12-11T07:38:48.744Z,23.14
2018-12-11T07:39:48.744Z,23.18
2018-12-11T07:40:48.749Z,23.16
2018-12-11T07:41:48.705Z,23.15
2018-12-11T07:42:48.707Z,23.21
2018-12-11T07:43:48.689Z,23.16
2018-12-11T07:44:48.691Z,23.19
2018-12-11T07:45:48.659Z,23.21
2018-12-11T07:46:48.650Z,23.25
2018-12-11T07:47:48.655Z,23.09
2018-12-11T07:48:48.641Z,23.21
2018-12-11T07:49:48.618Z,23.09
2018-12-11T07:50:48.616Z,23.16
2018-12-11T07:51:48.601Z,23.18
2018-12-11T07:52:48.591Z,23.16
2018-12-11T07:53:48.572Z,23.18
2018-12-11T07:54:48.571Z,23.18
2018-12-11T07:55:48.556Z,23.16
2018-12-11T07:56:48.559Z,23.19
2018-12-11T07:57:48.562Z,23.18
2018-12-11T07:58:48.515Z,23.15
2018-12-11T07:59:48.506Z,23.14
2018-12-11T08:00:48.500Z,23.21
2018-12-11T08:01:48.486Z,23.14
2018-12-11T08:02:48.488Z,23.19
2018-12-11T08:03:48.473Z,23.21
2018-12-11T08:04:48.465Z,23.19
2018-12-11T08:05:48.444Z,23.12
2018-12-11T08:06:48.444Z,23.18
2018-12-11T08:07:48.452Z,23.22
2018-12-11T08:08:48.405Z,23.22
2018-12-11T08:09:48.396Z,23.16
2018-12-11T08:10:48.410Z,23.18
2018-12-11T08:11:48.379Z,23.16
2018-12-11T08:12:48.361Z,23.24
2018-12-11T08:13:48.433Z,23.15
2018-12-11T08:14:48.335Z,23.14
2018-12-11T08:15:48.339Z,23.21
2018-12-11T08:16:48.385Z,23.21
2018-12-11T08:17:48.308Z,23.15
2018-12-11T08:18:48.306Z,23.18
2018-12-11T08:19:48.288Z,23.18
2018-12-11T08:20:48.301Z,23.25
2018-12-11T08:21:48.258Z,23.15
2018-12-11T08:22:48.273Z,23.15
2018-12-11T08:23:48.250Z,23.14
2018-12-11T08:24:48.235Z,23.24
2018-12-11T08:25:48.211Z,23.18
2018-12-11T08:26:48.204Z,23.14
2018-12-11T08:27:48.193Z,23.19
2018-12-11T08:28:48.200Z,23.16
2018-12-11T08:29:48.171Z,23.15
2018-12-11T08:30:48.200Z,23.21
2018-12-11T08:31:48.150Z,23.22
2018-12-11T08:32:48.138Z,23.22
2018-12-11T08:33:48.153Z,23.14
2018-12-11T08:34:48.111Z,23.22
2018-12-11T08:35:48.108Z,23.19
2018-12-11T08:36:48.122Z,23.22
2018-12-11T08:37:48.081Z,23.16
2018-12-11T08:38:48.086Z,23.14
2018-12-11T08:39:48.066Z,23.19
2018-12-11T08:40:48.051Z,23.15
2018-12-11T08:41:48.034Z,23.16
2018-12-11T08:42:48.024Z,23.15
2018-12-11T08:43:48.144Z,23.18
2018-12-11T08:44:51.194Z,23.16
2018-12-11T08:45:48.010Z,23.19
2018-12-11T08:46:47.981Z,23.21
2018-12-11T08:47:47.975Z,23.18
2018-12-11T08:48:47.978Z,23.25
2018-12-11T08:49:47.958Z,23.22
2018-12-11T08:50:47.940Z,23.18
2018-12-11T08:51:48.347Z,23.15
2018-12-11T08:52:47.913Z,23.19
2018-12-11T08:53:47.945Z,23.24
2018-12-11T08:54:47.888Z,23.32
2018-12-11T08:55:47.879Z,23.16
2018-12-11T08:56:47.890Z,23.25
2018-12-11T08:57:47.858Z,23.26
2018-12-11T08:58:47.882Z,23.35
2018-12-11T08:59:47.849Z,23.25
2018-12-11T09:00:47.823Z,23.35
2018-12-11T09:01:47.847Z,23.25
2018-12-11T09:02:47.802Z,23.25
2018-12-11T09:03:47.861Z,23.24
2018-12-11T09:04:47.785Z,23.25
2018-12-11T09:05:47.788Z,23.32
2018-12-11T09:06:47.778Z,23.24
2018-12-11T09:07:47.753Z,23.26
2018-12-11T09:08:47.735Z,23.24
2018-12-11T09:09:47.740Z,23.28
2018-12-11T09:10:47.716Z,23.24
2018-12-11T09:11:47.700Z,23.26
2018-12-11T09:12:47.694Z,23.25
2018-12-11T09:13:47.678Z,23.37
2018-12-11T09:14:47.688Z,23.32
2018-12-11T09:15:47.658Z,23.32
2018-12-11T09:16:47.643Z,23.26
2018-12-11T09:17:47.636Z,23.29
2018-12-11T09:18:47.631Z,23.35
2018-12-11T09:19:47.631Z,23.38
2018-12-11T09:20:47.609Z,23.34
2018-12-11T09:21:47.608Z,23.37
2018-12-11T09:22:47.577Z,23.42
2018-12-11T09:23:47.572Z,23.38
2018-12-11T09:24:47.570Z,23.38
2018-12-11T09:25:47.553Z,23.41
2018-12-11T09:26:47.538Z,23.37
2018-12-11T09:27:47.526Z,23.38
2018-12-11T09:28:47.511Z,23.44
2018-12-11T09:29:47.568Z,23.41
2018-12-11T09:30:47.492Z,23.40
2018-12-11T09:31:47.487Z,23.41
2018-12-11T09:32:47.465Z,23.32
2018-12-11T09:33:47.469Z,23.35
2018-12-11T09:34:47.476Z,23.38
2018-12-11T09:35:47.433Z,23.32
2018-12-11T09:36:47.427Z,23.38
2018-12-11T09:37:47.413Z,23.32
2018-12-11T09:38:47.452Z,23.37
2018-12-11T09:39:47.417Z,23.26
2018-12-11T09:40:47.379Z,23.35
2018-12-11T09:41:47.373Z,23.35
2018-12-11T09:42:47.368Z,23.38
2018-12-11T09:43:47.344Z,23.38
2018-12-11T09:44:47.350Z,23.38
2018-12-11T09:45:47.336Z,23.38
2018-12-11T09:46:47.314Z,23.35
2018-12-11T09:47:47.297Z,23.37
2018-12-11T09:48:47.297Z,23.35
2018-12-11T09:49:47.292Z,23.44
2018-12-11T09:50:47.275Z,23.41
2018-12-11T09:51:47.261Z,23.42
2018-12-11T09:52:47.272Z,23.25
2018-12-11T09:53:47.229Z,23.35
2018-12-11T09:54:47.234Z,23.37
2018-12-11T09:55:47.206Z,23.32
2018-12-11T09:56:47.215Z,23.41
2018-12-11T09:57:47.186Z,23.38
2018-12-11T09:58:47.177Z,23.34
2018-12-11T09:59:47.179Z,23.40
2018-12-11T10:00:47.157Z,23.40
2018-12-11T10:01:47.143Z,23.28
2018-12-11T10:02:47.133Z,23.44
2018-12-11T10:03:47.135Z,23.40
2018-12-11T10:04:47.125Z,23.37
2018-12-11T10:05:47.095Z,23.35
2018-12-11T10:06:47.084Z,23.40
2018-12-11T10:07:47.080Z,23.34
2018-12-11T10:08:47.064Z,23.38
2018-12-11T10:09:47.059Z,23.47
2018-12-11T10:10:47.057Z,23.45
2018-12-11T10:11:47.047Z,23.47
2018-12-11T10:12:47.023Z,23.47
2018-12-11T10:13:47.022Z,23.41
2018-12-11T10:14:47.006Z,23.48
2018-12-11T10:15:47.032Z,23.45
2018-12-11T10:16:46.976Z,23.55
2018-12-11T10:17:46.990Z,23.57
2018-12-11T10:18:46.955Z,23.53
2018-12-11T10:19:46.944Z,23.55
2018-12-11T10:20:47.049Z,23.56
2018-12-11T10:21:46.917Z,23.55
2018-12-11T10:22:46.911Z,23.50
2018-12-11T10:23:46.902Z,23.57
2018-12-11T10:24:46.892Z,23.55
2018-12-11T10:25:46.915Z,23.55
2018-12-11T10:26:46.866Z,23.53
2018-12-11T10:27:46.853Z,23.52
2018-12-11T10:28:46.843Z,23.55
2018-12-11T10:29:46.830Z,23.48
2018-12-11T10:30:46.830Z,23.53
2018-12-11T10:31:46.813Z,23.50
2018-12-11T10:32:46.809Z,23.45
2018-12-11T10:33:46.802Z,23.42
2018-12-11T10:34:46.779Z,23.42
2018-12-11T10:35:46.799Z,23.47
2018-12-11T10:36:46.749Z,23.52
2018-12-11T10:37:46.739Z,23.42
2018-12-11T10:38:46.740Z,23.42
2018-12-11T10:39:46.717Z,23.40
2018-12-11T10:40:46.739Z,23.41
2018-12-11T10:41:46.704Z,23.45
2018-12-11T10:42:46.709Z,23.48
2018-12-11T10:43:46.672Z,23.40
2018-12-11T10:44:46.670Z,23.45
2018-12-11T10:45:46.682Z,23.44
2018-12-11T10:46:46.640Z,23.40
2018-12-11T10:47:46.633Z,23.40
2018-12-11T10:48:46.617Z,23.41
2018-12-11T10:49:46.609Z,23.47
2018-12-11T10:50:46.621Z,23.35
2018-12-11T10:51:46.589Z,23.38
2018-12-11T10:52:46.571Z,23.41
2018-12-11T10:53:46.568Z,23.41
2018-12-11T10:54:46.555Z,23.47
2018-12-11T10:55:46.569Z,23.38
2018-12-11T10:56:46.537Z,23.48
2018-12-11T10:57:46.519Z,23.55
2018-12-11T10:58:46.517Z,23.44
2018-12-11T10:59:46.504Z,23.52
2018-12-11T11:00:46.501Z,23.42
2018-12-11T11:01:46.502Z,23.47
2018-12-11T11:02:46.462Z,23.45
2018-12-11T11:03:46.450Z,23.44
2018-12-11T11:04:46.441Z,23.50
2018-12-11T11:05:46.431Z,23.45
2018-12-11T11:06:46.486Z,23.40
2018-12-11T11:07:46.406Z,23.48
2018-12-11T11:08:46.394Z,23.52
2018-12-11T11:09:46.688Z,23.50
2018-12-11T11:10:46.382Z,23.47
2018-12-11T11:11:46.399Z,23.50
2018-12-11T11:12:46.357Z,23.52
2018-12-11T11:13:46.336Z,23.50
2018-12-11T11:14:46.329Z,23.48
2018-12-11T11:15:46.339Z,23.45
2018-12-11T11:16:46.315Z,23.45
2018-12-11T11:17:46.295Z,23.47
2018-12-11T11:18:46.285Z,23.47
2018-12-11T11:19:46.274Z,23.48
2018-12-11T11:20:46.260Z,23.48
2018-12-11T11:21:46.274Z,23.44
2018-12-11T11:22:46.238Z,23.44
2018-12-11T11:23:46.227Z,23.50
2018-12-11T11:24:46.236Z,23.50
2018-12-11T11:25:46.213Z,23.44
2018-12-11T11:26:46.203Z,23.50
2018-12-11T11:27:46.195Z,23.50
2018-12-11T11:28:46.169Z,23.52
2018-12-11T11:29:46.189Z,23.56
2018-12-11T11:30:46.151Z,23.47
2018-12-11T11:31:46.152Z,23.55
2018-12-11T11:32:46.124Z,23.50
2018-12-11T11:33:46.121Z,23.56
2018-12-11T11:34:46.102Z,23.48
2018-12-11T11:35:46.091Z,23.47
2018-12-11T11:36:46.090Z,23.50
2018-12-11T11:37:46.084Z,23.48
2018-12-11T11:38:46.061Z,23.48
2018-12-11T11:39:46.062Z,23.45
2018-12-11T11:40:46.051Z,23.48
2018-12-11T11:41:46.035Z,23.48
2018-12-11T11:42:46.018Z,23.48
2018-12-11T11:43:46.003Z,23.52
2018-12-11T11:44:46.002Z,23.48
2018-12-11T11:45:45.987Z,23.47
2018-12-11T11:46:46.008Z,23.48
2018-12-11T11:47:45.974Z,23.55
2018-12-11T11:48:45.945Z,23.48
2018-12-11T11:49:45.934Z,23.48
2018-12-11T11:50:45.926Z,23.47
2018-12-11T11:51:45.913Z,23.50
2018-12-11T11:52:45.981Z,23.47
2018-12-11T11:53:45.889Z,23.48
2018-12-11T11:54:45.893Z,23.48
2018-12-11T11:55:45.865Z,23.50
2018-12-11T11:56:45.854Z,23.47
2018-12-11T11:57:45.864Z,23.48
2018-12-11T11:58:45.835Z,23.50
2018-12-11T11:59:45.821Z,23.48
2018-12-11T12:00:45.814Z,23.47
2018-12-11T12:01:45.825Z,23.52
2018-12-11T12:02:45.809Z,23.50
2018-12-11T12:03:45.779Z,23.45
2018-12-11T12:04:45.765Z,23.55
2018-12-11T12:05:45.776Z,23.48
2018-12-11T12:06:45.770Z,23.48
2018-12-11T12:07:45.748Z,23.45
2018-12-11T12:08:45.727Z,23.50
2018-12-11T12:09:45.715Z,23.47
2018-12-11T12:10:45.744Z,23.42
2018-12-11T12:11:45.697Z,23.50
2018-12-11T12:12:45.694Z,23.47
2018-12-11T12:13:45.664Z,23.53
2018-12-11T12:14:49.052Z,23.50
2018-12-11T12:15:45.646Z,23.48
2018-12-11T12:16:45.643Z,23.45
2018-12-11T12:17:45.630Z,23.45
2018-12-11T12:18:45.624Z,23.50
2018-12-11T12:19:45.645Z,23.47
2018-12-11T12:20:45.586Z,23.45
2018-12-11T12:21:45.576Z,23.47
2018-12-11T12:22:45.587Z,23.50
2018-12-11T12:23:45.567Z,23.52
2018-12-11T12:24:45.546Z,23.48
2018-12-11T12:25:45.545Z,23.45
2018-12-11T12:26:45.526Z,23.47
2018-12-11T12:27:45.523Z,23.53
2018-12-11T12:28:45.499Z,23.48
2018-12-11T12:29:45.495Z,23.48
2018-12-11T12:30:45.491Z,23.45
2018-12-11T12:31:45.462Z,23.55
2018-12-11T12:32:45.485Z,23.47
2018-12-11T12:33:45.454Z,23.53
2018-12-11T12:34:45.434Z,23.55
2018-12-11T12:35:45.427Z,23.55
2018-12-11T12:36:45.408Z,23.57
2018-12-11T12:37:45.409Z,23.63
2018-12-11T12:38:45.382Z,23.62
2018-12-11T12:39:45.390Z,23.64
2018-12-11T12:40:45.365Z,23.52
2018-12-11T12:41:45.358Z,23.55
2018-12-11T12:42:45.382Z,23.66
2018-12-11T12:43:45.333Z,23.62
2018-12-11T12:44:45.326Z,23.55
2018-12-11T12:45:45.313Z,23.60
2018-12-11T12:46:45.305Z,23.71
2018-12-11T12:47:45.295Z,23.63
2018-12-11T12:48:45.289Z,23.66
2018-12-11T12:49:50.550Z,23.75
2018-12-11T12:50:46.250Z,23.67
2018-12-11T12:51:45.274Z,23.62
2018-12-11T12:52:45.228Z,23.71